Time;durP1;ratioP1;P1;durP2;ratioP2;P2;SDS_P1;SDS_P2;PMS_P1;PMS_P2;Temp;Humidity;BMP_temperature;BMP_pressure;BME280_temperature;BME280_humidity;BME280_pressure;Samples;Min_cycle;Max_cycle;Signal;HPM_P1;HPM_P2
2021/09/15 00:02:21;;;;;;;3.20;2.90;;;24.10;50.70;;;;;;5063582;28;20296;-72
2021/09/15 00:04:48;;;;;;;3.53;2.95;;;24.10;50.70;;;;;;5066837;28;20076;-73
2021/09/15 00:07:15;;;;;;;3.50;3.20;;;24.10;50.70;;;;;;5070556;28;20131;-73
2021/09/15 00:09:42;;;;;;;3.53;3.13;;;24.10;50.70;;;;;;5070003;28;20598;-73
2021/09/15 00:12:09;;;;;;;3.75;3.05;;;24.10;50.70;;;;;;5063216;28;20045;-73
2021/09/15 00:14:36;;;;;;;3.70;3.40;;;24.00;50.70;;;;;;5067264;28;20123;-73
2021/09/15 00:17:03;;;;;;;3.75;3.05;;;24.00;50.70;;;;;;5070189;28;20394;-73
2021/09/15 00:19:30;;;;;;;2.97;2.67;;;24.00;50.70;;;;;;5068131;28;20444;-73
2021/09/15 00:21:57;;;;;;;2.90;2.70;;;24.00;50.70;;;;;;5066182;28;20045;-73
2021/09/15 00:24:24;;;;;;;3.53;2.88;;;24.00;50.80;;;;;;5063628;28;20139;-73
2021/09/15 00:26:52;;;;;;;4.15;3.13;;;24.00;50.80;;;;;;5068590;28;20127;-73
2021/09/15 00:29:19;;;;;;;3.88;2.72;;;24.00;50.80;;;;;;5069763;28;20051;-73
2021/09/15 00:31:46;;;;;;;4.43;3.40;;;24.00;50.80;;;;;;5065953;28;20479;-73
2021/09/15 00:34:13;;;;;;;3.55;3.08;;;23.90;50.80;;;;;;5064890;28;20083;-73
2021/09/15 00:36:40;;;;;;;3.90;3.22;;;23.90;50.80;;;;;;5069382;28;20481;-73
2021/09/15 00:39:07;;;;;;;5.15;3.13;;;23.90;50.90;;;;;;5068846;28;20131;-73
2021/09/15 00:41:34;;;;;;;3.28;2.90;;;23.90;50.90;;;;;;5065517;28;20049;-72
2021/09/15 00:44:10;;;;;;;3.30;3.03;;;23.90;50.90;;;;;;5063881;28;20442;-73
2021/09/15 00:46:38;;;;;;;3.90;3.20;;;23.90;50.90;;;;;;5069262;28;20132;-72
2021/09/15 00:49:08;;;;;;;2.90;2.70;;;23.90;50.90;;;;;;5069002;28;20080;-73
2021/09/15 00:51:37;;;;;;;3.30;2.95;;;23.90;50.90;;;;;;5069372;28;20135;-72
2021/09/15 00:54:06;;;;;;;2.70;2.50;;;23.90;51.00;;;;;;5069165;28;20052;-73
2021/09/15 00:56:34;;;;;;;2.78;2.58;;;23.90;51.00;;;;;;5068979;28;20104;-73
2021/09/15 00:59:02;;;;;;;4.43;2.67;;;23.90;51.60;;;;;;5067571;28;20127;-73
2021/09/15 01:01:29;;;;;;;2.53;2.20;;;23.90;51.00;;;;;;5067565;28;20040;-73
2021/09/15 01:03:56;;;;;;;3.53;2.67;;;23.90;51.00;;;;;;5067644;28;20093;-73
2021/09/15 01:06:23;;;;;;;2.80;2.60;;;23.90;51.00;;;;;;5068858;28;20052;-73
2021/09/15 01:08:50;;;;;;;2.97;2.78;;;23.90;51.00;;;;;;5067768;28;20119;-73
2021/09/15 01:11:19;;;;;;;3.13;2.83;;;23.90;51.00;;;;;;5068905;28;20080;-73
2021/09/15 01:13:47;;;;;;;3.38;3.08;;;23.90;50.90;;;;;;5069079;28;20281;-73
2021/09/15 01:16:14;;;;;;;3.17;2.88;;;23.90;50.90;;;;;;5068204;28;20309;-72
2021/09/15 01:18:41;;;;;;;3.40;3.10;;;23.90;50.90;;;;;;5068625;28;20593;-73
2021/09/15 01:21:09;;;;;;;2.75;2.55;;;23.90;50.90;;;;;;5059067;28;20493;-71
2021/09/15 01:23:36;;;;;;;3.00;2.80;;;23.90;50.90;;;;;;5066463;28;20229;-74
2021/09/15 01:26:03;;;;;;;2.35;2.15;;;23.90;50.90;;;;;;5067914;28;20140;-73
2021/09/15 01:28:31;;;;;;;4.60;3.20;;;23.90;50.90;;;;;;5067722;28;20048;-73
2021/09/15 01:30:58;;;;;;;2.85;2.60;;;23.90;50.90;;;;;;5058322;28;20516;-71
2021/09/15 01:33:26;;;;;;;2.88;2.67;;;23.90;51.00;;;;;;5069790;28;20044;-73
2021/09/15 01:35:53;;;;;;;3.22;2.70;;;23.90;51.00;;;;;;5085371;28;20044;-73
2021/09/15 01:38:20;;;;;;;3.50;2.50;;;23.90;51.00;;;;;;5074588;28;20367;-74
2021/09/15 01:40:47;;;;;;;3.22;2.92;;;23.90;51.00;;;;;;5058288;28;20123;-73
2021/09/15 01:43:16;;;;;;;3.05;2.80;;;23.90;51.00;;;;;;5067353;28;20044;-73
2021/09/15 01:45:44;;;;;;;2.75;2.55;;;23.80;50.90;;;;;;5066880;28;20048;-73
2021/09/15 01:48:12;;;;;;;4.72;3.25;;;23.80;51.50;;;;;;5068297;28;20528;-73
2021/09/15 01:50:39;;;;;;;4.43;2.97;;;23.80;51.00;;;;;;5057232;28;20074;-73
2021/09/15 01:53:06;;;;;;;2.70;2.45;;;23.80;51.00;;;;;;5068833;28;20084;-74
2021/09/15 01:55:33;;;;;;;2.60;2.45;;;23.80;51.00;;;;;;5033610;28;20056;-73
2021/09/15 01:58:00;;;;;;;2.60;2.40;;;23.80;51.00;;;;;;5068164;28;20044;-73
2021/09/15 02:00:27;;;;;;;2.65;2.45;;;23.90;51.10;;;;;;5058032;28;20480;-71
2021/09/15 02:02:54;;;;;;;3.00;2.70;;;23.80;51.00;;;;;;5068310;28;20507;-73
2021/09/15 02:05:21;;;;;;;2.95;2.67;;;23.80;51.00;;;;;;5067508;28;20105;-74
2021/09/15 02:07:48;;;;;;;2.40;2.20;;;23.80;51.10;;;;;;5068143;28;20095;-72
2021/09/15 02:10:15;;;;;;;2.72;2.50;;;23.80;51.10;;;;;;5056218;28;20056;-71
2021/09/15 02:12:42;;;;;;;3.10;2.70;;;23.80;51.10;;;;;;5067904;28;20135;-73
2021/09/15 02:15:11;;;;;;;3.00;2.70;;;23.80;51.10;;;;;;5066382;28;20079;-73
2021/09/15 02:17:39;;;;;;;2.60;2.40;;;23.80;51.20;;;;;;5067996;28;20131;-73
2021/09/15 02:20:08;;;;;;;2.65;2.45;;;23.80;51.20;;;;;;5059497;28;20044;-70
2021/09/15 02:22:35;;;;;;;3.10;2.80;;;23.80;51.20;;;;;;5067517;28;20048;-72
2021/09/15 02:25:07;;;;;;;3.67;3.25;;;23.80;51.20;;;;;;5066978;28;20110;-72
2021/09/15 02:27:34;;;;;;;2.90;2.58;;;23.80;51.20;;;;;;5067600;28;20272;-72
2021/09/15 02:30:02;;;;;;;3.22;2.92;;;23.80;51.20;;;;;;5059356;28;20121;-70
2021/09/15 02:32:29;;;;;;;4.65;3.53;;;23.80;51.10;;;;;;5067152;28;20044;-72
2021/09/15 02:34:57;;;;;;;3.15;2.85;;;23.80;51.10;;;;;;5068293;28;20076;-72
2021/09/15 02:37:24;;;;;;;2.50;2.40;;;23.80;51.20;;;;;;5071228;28;20139;-72
2021/09/15 02:39:51;;;;;;;2.83;2.63;;;23.80;51.10;;;;;;5065262;28;20160;-72
2021/09/15 02:42:18;;;;;;;2.97;2.78;;;23.80;51.10;;;;;;5068623;28;20135;-73
2021/09/15 02:44:45;;;;;;;2.83;2.60;;;23.80;51.20;;;;;;5071804;28;20045;-72
2021/09/15 02:47:12;;;;;;;2.97;2.78;;;23.80;51.20;;;;;;5071490;28;20054;-72
2021/09/15 02:49:40;;;;;;;2.78;2.58;;;23.80;51.10;;;;;;5065032;28;20055;-72
2021/09/15 02:52:07;;;;;;;2.63;2.45;;;23.70;51.10;;;;;;5068499;28;20140;-72
2021/09/15 02:54:34;;;;;;;2.58;2.35;;;23.80;51.20;;;;;;5070407;28;20180;-72
2021/09/15 02:57:01;;;;;;;2.95;2.75;;;23.70;51.10;;;;;;5070451;28;20131;-73
2021/09/15 02:59:28;;;;;;;2.50;2.30;;;23.70;51.10;;;;;;5064460;28;20690;-72
2021/09/15 03:01:55;;;;;;;3.20;3.00;;;23.70;51.10;;;;;;5068781;28;20058;-72
2021/09/15 03:04:23;;;;;;;2.97;2.78;;;23.70;51.10;;;;;;5071107;28;20060;-72
2021/09/15 03:06:51;;;;;;;2.83;2.65;;;23.70;51.10;;;;;;5071308;28;20131;-72
2021/09/15 03:09:18;;;;;;;2.60;2.40;;;23.70;51.10;;;;;;5068303;28;20127;-72
2021/09/15 03:11:45;;;;;;;3.17;2.90;;;23.70;51.10;;;;;;5049626;28;20139;-72
2021/09/15 03:14:12;;;;;;;2.63;2.40;;;23.70;51.10;;;;;;5071480;28;20128;-72
2021/09/15 03:16:39;;;;;;;2.95;2.75;;;23.70;51.10;;;;;;5071074;28;20055;-72
2021/09/15 03:19:06;;;;;;;3.00;2.70;;;23.70;51.10;;;;;;5067776;28;20067;-72
2021/09/15 03:21:33;;;;;;;3.42;2.60;;;23.70;51.10;;;;;;5064628;28;20210;-73
2021/09/15 03:24:01;;;;;;;2.80;2.55;;;23.70;51.10;;;;;;5071262;28;20075;-72
2021/09/15 03:26:28;;;;;;;2.60;2.40;;;23.70;51.20;;;;;;5070158;28;20048;-72
2021/09/15 03:28:55;;;;;;;2.70;2.47;;;23.70;51.20;;;;;;5066911;28;20383;-70
2021/09/15 03:31:22;;;;;;;2.97;2.53;;;23.70;51.30;;;;;;5066162;28;20059;-70
2021/09/15 03:33:49;;;;;;;3.10;2.67;;;23.70;51.30;;;;;;5071014;28;20036;-73
2021/09/15 03:36:16;;;;;;;3.63;3.33;;;23.60;51.20;;;;;;5081519;28;20101;-72
2021/09/15 03:38:43;;;;;;;3.55;3.20;;;23.60;51.20;;;;;;5086994;28;20079;-71
2021/09/15 03:41:11;;;;;;;3.40;3.10;;;23.70;51.30;;;;;;5062276;28;20052;-72
2021/09/15 03:43:38;;;;;;;2.70;2.50;;;23.60;51.20;;;;;;5070073;28;20044;-73
2021/09/15 03:46:05;;;;;;;2.55;2.35;;;23.60;51.20;;;;;;5070537;28;20135;-72
2021/09/15 03:48:32;;;;;;;2.70;2.47;;;23.60;51.20;;;;;;5070201;28;20040;-72
2021/09/15 03:51:00;;;;;;;4.70;2.67;;;23.70;51.30;;;;;;5060689;28;20688;-73
2021/09/15 03:53:27;;;;;;;2.55;2.35;;;23.70;51.30;;;;;;5070219;28;20123;-72
2021/09/15 03:55:54;;;;;;;2.90;2.60;;;23.60;51.20;;;;;;5070779;28;20052;-73
2021/09/15 03:58:21;;;;;;;2.47;2.28;;;23.60;51.20;;;;;;5070285;28;20468;-72
2021/09/15 04:00:48;;;;;;;2.60;2.40;;;23.60;51.20;;;;;;5059263;28;20238;-70
2021/09/15 04:03:16;;;;;;;2.83;2.53;;;23.70;51.30;;;;;;5069814;28;20048;-72
2021/09/15 04:05:43;;;;;;;2.65;2.45;;;23.60;51.20;;;;;;5070157;28;20056;-72
2021/09/15 04:08:10;;;;;;;2.58;2.38;;;23.60;51.20;;;;;;5065900;28;20276;-72
2021/09/15 04:10:37;;;;;;;3.30;3.00;;;23.60;51.20;;;;;;5055047;28;20059;-72
2021/09/15 04:13:04;;;;;;;3.00;2.78;;;23.60;51.20;;;;;;5058605;28;20335;-72
2021/09/15 04:15:31;;;;;;;2.53;2.33;;;23.60;51.20;;;;;;5058356;28;20408;-72
2021/09/15 04:17:58;;;;;;;3.10;2.90;;;23.60;51.20;;;;;;5058229;28;20131;-72
2021/09/15 04:20:25;;;;;;;2.60;2.40;;;23.60;51.20;;;;;;5054411;28;20560;-70
2021/09/15 04:22:53;;;;;;;3.38;3.08;;;23.60;51.20;;;;;;5061306;28;20045;-72
2021/09/15 04:33:41;;;;;;;2.50;2.30;;;23.60;51.10;;;;;;5048372;28;20049;-72
2021/09/15 04:36:08;;;;;;;3.95;2.63;;;23.60;51.10;;;;;;5048802;28;20049;-72
2021/09/15 04:38:36;;;;;;;3.22;2.55;;;23.60;51.10;;;;;;5048337;28;20072;-72
2021/09/15 04:41:05;;;;;;;3.25;2.95;;;23.60;51.10;;;;;;5059738;28;20066;-71
2021/09/15 04:43:33;;;;;;;2.60;2.40;;;23.60;51.10;;;;;;5068092;28;20507;-72
2021/09/15 04:46:00;;;;;;;2.65;2.42;;;23.60;51.10;;;;;;5049944;28;20048;-72
2021/09/15 04:48:28;;;;;;;2.70;2.50;;;23.60;51.10;;;;;;5049377;28;20045;-72
2021/09/15 04:50:55;;;;;;;2.40;2.20;;;23.60;51.10;;;;;;5048988;28;20319;-72
2021/09/15 04:53:22;;;;;;;2.20;2.00;;;23.70;51.20;;;;;;5055403;28;20047;-71
2021/09/15 04:55:49;;;;;;;2.63;2.38;;;23.60;51.10;;;;;;5063512;28;20389;-71
2021/09/15 04:58:16;;;;;;;2.63;2.42;;;23.60;51.10;;;;;;5068556;28;20072;-72
2021/09/15 05:00:43;;;;;;;2.83;2.50;;;23.60;51.10;;;;;;5053695;28;20561;-70
2021/09/15 05:03:11;;;;;;;2.50;2.30;;;23.60;51.10;;;;;;5050337;28;20052;-72
2021/09/15 05:05:38;;;;;;;4.25;2.63;;;23.70;51.00;;;;;;5060681;28;20044;-72
2021/09/15 05:08:05;;;;;;;2.90;2.42;;;23.70;51.00;;;;;;5069018;28;20052;-73
2021/09/15 05:10:32;;;;;;;3.25;2.58;;;23.70;50.90;;;;;;5046479;28;20080;-73
2021/09/15 05:12:59;;;;;;;2.90;2.70;;;23.70;50.80;;;;;;5052651;28;20525;-72
2021/09/15 05:15:27;;;;;;;3.13;2.88;;;23.70;50.70;;;;;;5065656;28;20055;-73
2021/09/15 05:17:55;;;;;;;3.22;2.92;;;23.80;50.70;;;;;;5064603;28;20344;-72
2021/09/15 05:20:22;;;;;;;4.00;3.63;;;23.80;50.60;;;;;;5046267;28;20692;-72
2021/09/15 05:22:51;;;;;;;3.42;3.13;;;23.80;50.50;;;;;;5056270;28;20132;-73
2021/09/15 05:25:19;;;;;;;3.00;2.67;;;23.80;50.40;;;;;;5050501;28;20052;-73
2021/09/15 05:27:47;;;;;;;3.22;2.92;;;23.80;50.30;;;;;;5047074;28;20041;-76
2021/09/15 05:30:27;;;;;;;7.90;2.75;;;23.80;50.30;;;;;;5050524;28;20135;-73
2021/09/15 05:32:54;;;;;;;3.50;3.20;;;23.80;50.40;;;;;;5058316;28;20131;-73
2021/09/15 05:35:21;;;;;;;3.45;2.40;;;23.90;50.60;;;;;;5051357;28;20052;-72
2021/09/15 05:37:48;;;;;;;5.60;3.50;;;23.90;50.70;;;;;;5064026;28;20060;-75
2021/09/15 05:40:15;;;;;;;4.13;3.47;;;23.90;50.80;;;;;;5063166;28;20064;-69
2021/09/15 05:42:43;;;;;;;3.80;3.05;;;23.90;50.90;;;;;;5044546;28;20087;-74
2021/09/15 05:45:10;;;;;;;4.22;3.45;;;23.90;50.90;;;;;;5051314;28;20096;-71
2021/09/15 05:47:37;;;;;;;6.70;3.92;;;23.90;50.80;;;;;;5046923;28;20056;-73
2021/09/15 05:53:12;;;;;;;6.97;4.15;;;24.00;50.80;;;;;;5041159;28;20179;-69
2021/09/15 05:55:40;;;;;;;4.30;3.88;;;24.00;50.50;;;;;;5038840;28;20102;-70
2021/09/15 05:58:07;;;;;;;5.63;4.40;;;24.10;50.30;;;;;;5051497;28;20175;-72
2021/09/15 06:00:34;;;;;;;5.47;4.47;;;24.10;49.90;;;;;;5042442;28;20094;-70
2021/09/15 06:03:01;;;;;;;5.22;4.72;;;24.10;49.80;;;;;;5039594;28;20044;-71
2021/09/15 06:05:29;;;;;;;6.18;5.45;;;24.10;49.90;;;;;;5051015;28;20090;-77
2021/09/15 06:07:56;;;;;;;7.30;5.90;;;24.10;49.90;;;;;;5055988;28;20050;-75
2021/09/15 06:10:23;;;;;;;7.85;6.07;;;24.20;49.90;;;;;;5045094;28;20175;-75
2021/09/15 06:12:50;;;;;;;10.80;6.13;;;24.20;49.90;;;;;;5052629;28;20079;-71
2021/09/15 06:15:17;;;;;;;8.02;6.72;;;24.20;49.90;;;;;;5038520;28;20128;-74
2021/09/15 06:17:45;;;;;;;8.48;6.13;;;24.20;49.90;;;;;;5043233;28;20592;-73
2021/09/15 06:20:38;;;;;;;6.80;6.05;;;24.30;50.00;;;;;;5048286;28;20047;-74
2021/09/15 06:23:10;;;;;;;8.07;6.03;;;24.30;50.10;;;;;;5045144;28;20049;-71
2021/09/15 06:25:40;;;;;;;7.93;5.78;;;24.30;50.00;;;;;;5047336;28;20045;-75
2021/09/15 06:28:08;;;;;;;12.73;6.80;;;24.30;49.90;;;;;;5041605;28;20558;-74
2021/09/15 06:31:15;;;;;;;12.13;6.47;;;24.40;49.80;;;;;;5042477;28;20044;-75
2021/09/15 06:33:42;;;;;;;9.10;6.68;;;24.40;49.70;;;;;;5046228;28;20128;-72
2021/09/15 06:36:10;;;;;;;8.70;5.43;;;24.40;49.60;;;;;;5054261;28;20112;-73
2021/09/15 06:38:37;;;;;;;8.68;5.65;;;24.50;49.70;;;;;;5053501;28;20174;-77
2021/09/15 06:41:14;;;;;;;7.93;6.13;;;24.50;49.60;;;;;;5042731;28;20051;-72
2021/09/15 06:43:44;;;;;;;12.50;5.75;;;24.50;49.40;;;;;;5047495;28;21593;-76
2021/09/15 06:46:12;;;;;;;10.13;6.28;;;24.60;49.40;;;;;;5050296;28;20052;-76
2021/09/15 06:48:39;;;;;;;9.98;6.18;;;24.60;49.30;;;;;;5051787;28;20068;-75
2021/09/15 06:51:06;;;;;;;7.15;5.75;;;24.60;49.40;;;;;;5041783;28;20136;-73
2021/09/15 06:53:33;;;;;;;13.43;6.18;;;24.60;49.40;;;;;;5047687;28;20124;-75
2021/09/15 06:56:01;;;;;;;11.10;6.22;;;24.60;49.60;;;;;;5045861;28;20505;-71
2021/09/15 06:58:28;;;;;;;9.35;5.82;;;24.60;49.70;;;;;;5048655;28;20088;-75
2021/09/15 07:00:55;;;;;;;15.75;5.45;;;24.60;49.70;;;;;;5048038;28;20090;-67
2021/09/15 07:03:22;;;;;;;7.68;5.03;;;24.70;49.80;;;;;;5040177;28;20079;-76
2021/09/15 07:05:49;;;;;;;10.30;5.90;;;24.70;49.80;;;;;;5046686;28;20156;-75
2021/09/15 07:08:18;;;;;;;10.20;5.45;;;24.70;49.80;;;;;;5049708;28;20131;-67
2021/09/15 07:10:45;;;;;;;10.45;5.00;;;24.70;49.70;;;;;;5046949;28;20120;-66
2021/09/15 07:13:12;;;;;;;9.00;5.20;;;24.80;49.70;;;;;;5045195;28;20080;-72
2021/09/15 07:15:39;;;;;;;6.95;5.65;;;24.80;49.70;;;;;;5045806;28;20076;-68
2021/09/15 07:18:06;;;;;;;6.57;4.93;;;24.80;49.80;;;;;;5050718;28;20072;-69
2021/09/15 07:21:02;;;;;;;7.75;5.07;;;24.90;50.10;;;;;;5052720;28;20056;-68
2021/09/15 07:23:32;;;;;;;8.63;5.05;;;24.90;50.30;;;;;;5053933;28;20048;-67
2021/09/15 07:25:59;;;;;;;9.52;5.43;;;24.90;50.50;;;;;;5054437;28;20056;-73
2021/09/15 07:28:26;;;;;;;8.77;4.80;;;24.90;50.50;;;;;;5056483;28;20050;-75
2021/09/15 07:30:53;;;;;;;6.50;4.45;;;25.00;50.40;;;;;;5055344;28;20116;-67
2021/09/15 07:33:21;;;;;;;6.55;4.10;;;25.10;50.20;;;;;;5048016;28;20126;-75
2021/09/15 07:35:48;;;;;;;4.70;3.92;;;25.10;49.90;;;;;;5053190;28;20049;-73
2021/09/15 07:38:15;;;;;;;5.95;4.38;;;25.10;49.70;;;;;;5065316;28;20051;-69
2021/09/15 07:40:42;;;;;;;5.70;4.05;;;25.20;49.50;;;;;;5079198;28;20045;-68
2021/09/15 07:43:09;;;;;;;29.50;4.78;;;25.20;49.30;;;;;;5079710;28;20127;-73
2021/09/15 07:45:36;;;;;;;5.82;3.92;;;25.20;49.10;;;;;;5080754;28;20080;-72
2021/09/15 07:48:04;;;;;;;6.82;4.05;;;25.20;48.90;;;;;;5087602;28;20048;-71
2021/09/15 07:50:31;;;;;;;12.38;3.58;;;25.20;49.30;;;;;;5079581;28;20041;-71
2021/09/15 07:52:58;;;;;;;6.32;4.35;;;25.30;48.80;;;;;;5079009;28;20080;-72
2021/09/15 07:55:25;;;;;;;4.93;4.03;;;25.30;48.70;;;;;;5078803;28;20520;-73
2021/09/15 07:57:53;;;;;;;6.28;4.57;;;25.30;48.80;;;;;;5078653;28;20055;-71
2021/09/15 08:00:21;;;;;;;5.30;4.75;;;25.30;48.80;;;;;;5077189;28;20099;-70
2021/09/15 08:02:48;;;;;;;8.02;4.90;;;25.40;48.90;;;;;;5078697;28;20052;-71
2021/09/15 08:05:16;;;;;;;9.18;5.68;;;25.40;48.90;;;;;;5078815;28;20186;-70
2021/09/15 08:07:43;;;;;;;5.45;4.93;;;25.40;48.90;;;;;;5078301;28;20087;-67
2021/09/15 08:10:11;;;;;;;8.13;5.10;;;25.50;48.90;;;;;;5078529;28;20059;-73
2021/09/15 08:12:38;;;;;;;6.65;5.15;;;25.50;48.80;;;;;;5078650;28;20076;-70
2021/09/15 08:15:06;;;;;;;7.72;5.32;;;25.50;48.80;;;;;;5062646;28;20048;-69
2021/09/15 08:17:33;;;;;;;8.88;5.60;;;25.60;49.10;;;;;;5079904;28;20064;-66
2021/09/15 08:20:01;;;;;;;7.78;4.53;;;25.60;49.30;;;;;;5078822;28;20184;-66
2021/09/15 08:22:29;;;;;;;6.70;5.13;;;25.70;49.30;;;;;;5080827;28;20106;-71
2021/09/15 08:24:56;;;;;;;7.53;4.70;;;25.70;49.30;;;;;;5078713;28;20091;-72
2021/09/15 08:27:23;;;;;;;5.63;5.07;;;25.70;49.30;;;;;;5078985;28;20123;-63
2021/09/15 08:29:50;;;;;;;6.03;4.55;;;25.80;49.10;;;;;;5080717;28;20048;-67
2021/09/15 08:32:17;;;;;;;4.53;4.15;;;25.80;49.00;;;;;;5082260;28;20049;-67
2021/09/15 08:34:44;;;;;;;5.57;4.45;;;25.90;49.10;;;;;;5080783;28;20044;-70
2021/09/15 08:37:11;;;;;;;5.30;4.25;;;25.90;49.10;;;;;;5081270;28;20517;-73
2021/09/15 08:39:38;;;;;;;5.55;5.05;;;25.90;48.70;;;;;;5080109;28;20048;-73
2021/09/15 08:42:06;;;;;;;7.93;4.80;;;25.90;48.50;;;;;;5081858;28;20079;-77
2021/09/15 08:44:33;;;;;;;7.07;4.80;;;25.90;48.40;;;;;;5082840;28;20083;-81
2021/09/15 08:47:02;;;;;;;6.63;4.63;;;25.90;48.20;;;;;;5081010;28;20075;-74
2021/09/15 08:49:30;;;;;;;7.22;4.63;;;25.90;48.10;;;;;;5078331;28;20044;-74
2021/09/15 08:51:57;;;;;;;5.43;4.70;;;25.90;48.00;;;;;;5078457;28;20079;-73
2021/09/15 08:54:25;;;;;;;4.75;4.35;;;25.90;48.00;;;;;;5076839;28;20081;-73
2021/09/15 08:56:52;;;;;;;9.02;4.78;;;26.00;47.90;;;;;;5059125;28;20072;-73
2021/09/15 09:03:02;;;;;;;4.93;4.47;;;26.00;48.00;;;;;;6218180;23;20518;-68
2021/09/15 09:05:30;;;;;;;6.40;4.88;;;26.00;47.60;;;;;;5034918;28;20053;-70
2021/09/15 09:07:57;;;;;;;7.88;4.78;;;26.00;47.60;;;;;;5002182;28;20048;-69
2021/09/15 09:10:38;;;;;;;4.93;4.50;;;26.00;47.70;;;;;;5011323;28;20052;-69
2021/09/15 09:13:54;;;;;;;5.45;4.70;;;26.10;47.50;;;;;;5001009;28;20049;-71
2021/09/15 09:16:38;;;;;;;5.68;4.75;;;26.10;47.20;;;;;;4992085;28;20069;-68
2021/09/15 09:19:07;;;;;;;5.10;4.68;;;26.20;47.10;;;;;;5013745;28;20044;-68
2021/09/15 09:21:37;;;;;;;10.27;5.30;;;26.10;47.00;;;;;;5007533;28;20037;-74
2021/09/15 09:24:07;;;;;;;6.93;4.95;;;26.10;47.00;;;;;;5000777;28;20092;-71
2021/09/15 09:26:51;;;;;;;6.43;5.82;;;26.20;46.80;;;;;;5017602;28;20045;-70
2021/09/15 09:29:55;;;;;;;5.95;4.80;;;26.20;46.60;;;;;;5017482;28;20053;-63
2021/09/15 09:32:29;;;;;;;6.78;5.43;;;26.20;46.50;;;;;;5005723;28;20125;-67
2021/09/15 09:34:57;;;;;;;6.07;5.50;;;26.20;46.40;;;;;;4998330;28;20121;-69
2021/09/15 09:37:24;;;;;;;6.80;5.72;;;26.20;46.30;;;;;;5013328;28;20521;-72
2021/09/15 09:39:55;;;;;;;5.80;5.30;;;26.20;46.80;;;;;;5006972;28;20094;-67
2021/09/15 09:42:38;;;;;;;7.93;6.03;;;26.20;46.10;;;;;;5008928;28;20049;-67
2021/09/15 09:45:15;;;;;;;9.63;6.43;;;26.30;46.20;;;;;;5010384;28;20052;-69
2021/09/15 09:47:45;;;;;;;6.10;5.50;;;26.30;46.10;;;;;;5001398;28;20338;-75
2021/09/15 09:50:33;;;;;;;9.50;5.90;;;26.40;46.00;;;;;;4991845;28;20141;-70
2021/09/15 09:53:25;;;;;;;5.88;5.28;;;26.40;45.90;;;;;;5009037;28;21014;-71
2021/09/15 09:55:57;;;;;;;6.85;5.90;;;26.40;45.70;;;;;;5006931;28;20172;-72
2021/09/15 09:58:26;;;;;;;6.25;5.63;;;26.40;46.20;;;;;;5020031;28;20084;-71
2021/09/15 10:01:16;;;;;;;6.32;5.72;;;26.50;46.50;;;;;;5017795;28;20065;-69
2021/09/15 10:04:09;;;;;;;6.38;5.28;;;26.60;46.50;;;;;;5002315;28;20049;-63
2021/09/15 10:06:38;;;;;;;7.25;5.82;;;26.60;46.60;;;;;;5016490;28;20114;-67
2021/09/15 10:09:06;;;;;;;6.50;5.55;;;26.70;46.80;;;;;;5003068;28;20119;-67
2021/09/15 10:11:39;;;;;;;6.50;5.55;;;26.70;46.40;;;;;;5019629;28;20121;-68
2021/09/15 10:14:10;;;;;;;10.10;5.80;;;26.80;46.30;;;;;;5013268;28;20046;-70
2021/09/15 10:16:44;;;;;;;6.75;5.63;;;26.80;46.00;;;;;;5004203;28;20143;-70
2021/09/15 10:19:16;;;;;;;8.80;5.82;;;26.90;45.70;;;;;;5009512;28;20088;-67
2021/09/15 10:21:54;;;;;;;11.63;5.57;;;26.90;45.50;;;;;;4986098;28;20619;-65
2021/09/15 10:24:41;;;;;;;5.65;5.15;;;26.90;45.30;;;;;;4996965;28;20152;-67
2021/09/15 10:27:08;;;;;;;7.53;5.40;;;26.80;45.40;;;;;;4999474;28;20048;-72
2021/09/15 10:33:46;;;;;;;6.57;5.45;;;26.80;45.20;;;;;;5004724;28;20046;-67
2021/09/15 10:36:38;;;;;;;5.97;5.10;;;26.80;45.00;;;;;;4986480;28;20173;-66
2021/09/15 10:39:08;;;;;;;5.22;4.70;;;26.80;44.80;;;;;;5014680;28;20747;-68
2021/09/15 10:42:12;;;;;;;8.37;5.10;;;26.80;44.80;;;;;;5014915;28;20128;-65
2021/09/15 10:45:19;;;;;;;6.20;5.60;;;26.80;44.60;;;;;;5009426;28;20140;-69
2021/09/15 10:47:54;;;;;;;6.18;5.57;;;26.80;44.40;;;;;;5009340;28;20061;-66
2021/09/15 10:50:55;;;;;;;6.97;5.88;;;26.80;44.40;;;;;;5000974;28;20041;-67
2021/09/15 10:53:30;;;;;;;5.70;5.18;;;26.80;44.20;;;;;;5006428;28;20054;-68
2021/09/15 10:55:59;;;;;;;8.15;5.30;;;26.80;44.10;;;;;;5013241;28;20065;-65
2021/09/15 10:58:29;;;;;;;7.22;4.85;;;26.80;44.20;;;;;;5012263;28;20060;-66
2021/09/15 11:04:34;;;;;;;5.05;4.55;;;26.90;44.00;;;;;;5019545;28;20042;-73
2021/09/15 11:07:01;;;;;;;9.93;6.13;;;26.90;43.90;;;;;;5001974;28;20053;-71
2021/09/15 11:09:39;;;;;;;5.28;4.78;;;26.90;43.90;;;;;;5024663;28;20111;-72
2021/09/15 11:12:44;;;;;;;5.57;5.07;;;26.90;43.90;;;;;;4999568;28;20044;-73
2021/09/15 11:15:31;;;;;;;7.32;5.70;;;26.90;43.90;;;;;;5019956;28;20057;-72
2021/09/15 11:17:59;;;;;;;8.43;6.15;;;27.00;44.00;;;;;;5025550;28;20101;-77
2021/09/15 11:21:10;;;;;;;7.85;5.47;;;27.00;43.90;;;;;;5018221;28;20347;-72
2021/09/15 11:23:38;;;;;;;6.68;6.07;;;27.00;43.80;;;;;;5001756;28;20188;-76
2021/09/15 11:26:05;;;;;;;18.73;5.72;;;27.00;43.80;;;;;;5018824;28;20908;-72
2021/09/15 11:28:34;;;;;;;6.80;5.28;;;27.00;43.70;;;;;;5018146;28;20073;-72
2021/09/15 11:31:03;;;;;;;5.68;5.18;;;27.10;43.80;;;;;;4993852;28;20046;-72
2021/09/15 11:33:34;;;;;;;8.88;5.55;;;27.10;43.90;;;;;;5010717;28;20782;-77
2021/09/15 11:36:05;;;;;;;5.95;5.07;;;27.10;43.80;;;;;;5015009;28;20560;-71
2021/09/15 11:38:35;;;;;;;7.38;5.50;;;27.10;43.60;;;;;;5020090;28;20081;-70
2021/09/15 11:41:34;;;;;;;7.53;5.13;;;27.20;43.70;;;;;;5011294;28;20050;-70
2021/09/15 11:44:22;;;;;;;5.75;5.20;;;27.20;43.70;;;;;;5009524;28;20055;-71
2021/09/15 11:46:50;;;;;;;5.43;4.93;;;27.20;43.70;;;;;;5011739;28;20080;-71
2021/09/15 11:49:29;;;;;;;4.75;4.35;;;27.20;43.70;;;;;;5014586;28;20041;-80
2021/09/15 11:51:59;;;;;;;4.70;4.30;;;27.30;43.70;;;;;;5013725;28;20581;-72
2021/09/15 11:54:27;;;;;;;5.68;4.78;;;27.30;43.60;;;;;;5020416;28;20494;-71
2021/09/15 11:57:06;;;;;;;5.47;4.60;;;27.30;43.70;;;;;;5025023;28;20137;-71
2021/09/15 11:59:34;;;;;;;5.75;5.00;;;27.30;43.70;;;;;;5026138;28;20034;-72
2021/09/15 12:02:04;;;;;;;5.53;4.90;;;27.30;43.70;;;;;;5016304;28;20522;-69
2021/09/15 12:04:35;;;;;;;5.28;4.63;;;27.40;43.60;;;;;;5020459;28;20049;-71
2021/09/15 12:07:02;;;;;;;4.85;4.43;;;27.40;43.40;;;;;;5021656;28;20041;-77
2021/09/15 12:09:31;;;;;;;5.90;4.93;;;27.40;43.40;;;;;;5022899;28;20107;-75
2021/09/15 12:11:59;;;;;;;4.43;4.07;;;27.50;43.40;;;;;;5014949;28;20044;-73
2021/09/15 12:14:32;;;;;;;6.20;4.63;;;27.40;43.40;;;;;;5022527;28;20208;-75
2021/09/15 12:17:04;;;;;;;6.03;4.80;;;27.50;43.40;;;;;;5020362;28;20041;-74
2021/09/15 12:19:31;;;;;;;5.18;4.70;;;27.50;43.30;;;;;;5018628;28;20433;-76
2021/09/15 12:21:59;;;;;;;6.05;5.20;;;27.20;43.50;;;;;;5010450;28;20037;-75
2021/09/15 12:24:26;;;;;;;5.22;4.82;;;27.00;43.90;;;;;;5024347;28;20052;-80
2021/09/15 12:26:55;;;;;;;6.47;5.35;;;26.70;44.20;;;;;;5007695;28;20073;-76
2021/09/15 12:29:22;;;;;;;5.03;4.50;;;26.50;44.50;;;;;;5020937;28;20689;-67
2021/09/15 12:32:00;;;;;;;5.40;4.90;;;26.20;45.00;;;;;;5017833;28;20096;-66
2021/09/15 12:34:36;;;;;;;6.07;5.47;;;26.00;46.40;;;;;;5021775;28;20067;-77
2021/09/15 12:37:17;;;;;;;6.90;5.45;;;25.80;47.20;;;;;;5026165;28;20140;-70
2021/09/15 12:40:01;;;;;;;5.80;5.20;;;25.60;47.40;;;;;;5024735;28;20076;-72
2021/09/15 12:42:34;;;;;;;5.63;5.13;;;25.50;48.00;;;;;;5011037;28;20034;-70
2021/09/15 12:45:11;;;;;;;7.40;5.35;;;25.30;48.00;;;;;;5023820;28;20057;-68
2021/09/15 12:47:42;;;;;;;7.63;6.10;;;25.20;48.40;;;;;;5029621;28;20045;-73
2021/09/15 12:50:16;;;;;;;6.63;5.68;;;25.10;48.80;;;;;;5027293;28;20105;-68
2021/09/15 12:52:45;;;;;;;6.38;5.70;;;25.00;49.00;;;;;;5000056;28;20047;-74
2021/09/15 12:55:21;;;;;;;6.32;5.72;;;24.90;49.20;;;;;;5024475;28;20128;-69
2021/09/15 12:58:02;;;;;;;6.30;5.65;;;24.90;49.40;;;;;;5017188;28;20499;-69
2021/09/15 13:00:32;;;;;;;;;;;24.80;49.70;;;;;;5019230;28;20050;-71
2021/09/15 13:03:39;;;;;;;9.55;5.97;;;24.70;49.70;;;;;;5006169;28;19923;-69
2021/09/15 13:06:06;;;;;;;6.75;6.13;;;24.70;49.80;;;;;;4996168;28;20050;-73
2021/09/15 13:08:46;;;;;;;5.95;5.43;;;24.70;49.90;;;;;;5007671;28;20053;-75
2021/09/15 13:11:36;;;;;;;6.65;5.90;;;24.70;49.70;;;;;;4991383;28;20096;-74
2021/09/15 13:14:03;;;;;;;5.85;5.07;;;24.60;49.40;;;;;;4997384;28;20562;-72
2021/09/15 13:16:30;;;;;;;6.35;5.45;;;24.60;49.40;;;;;;4998156;28;20049;-68
2021/09/15 13:18:59;;;;;;;6.32;5.68;;;24.50;49.20;;;;;;5010292;28;20055;-70
2021/09/15 13:21:45;;;;;;;5.30;4.80;;;24.50;49.30;;;;;;4996302;28;20069;-74
2021/09/15 13:24:12;;;;;;;6.25;5.65;;;24.50;49.20;;;;;;4995637;28;20046;-72
2021/09/15 13:26:39;;;;;;;10.55;7.13;;;24.40;49.10;;;;;;5003433;28;20144;-66